METAR Reports From Nearby Airports

 

KTIW - Tacoma, Washington, USA
Distance from station: S 6mi, 10km
Updated: Tue, 16-Jan-2018 12:53am PST
Light rain, Overcast
Light rain, Overcast
 Wind from SE
Wind: SE 5 mph , 7 km/h
Temperature: 48°F , 9°C
Wind Chill: 46°F , 8°C
Dew Point: 46°F , 8°C
Humidity: 94%
Barometer: 30.02 inHg , 1016.6 hPa
Summary: Light rain
Clouds: Overcast
Visibility: 10 miles , 16 km
Cloud details: Overcast 6000 ft
2018/01/16 08:53 KTIW 160853Z AUTO 13004KT 10SM -RA OVC060 09/08 A3002 RMK AO2 SLP167 P0003 60005 T00890078 51022 $
KPWT - Bremerton Ntnl, Washington, USA
Distance from station: NW 13mi, 20km
Updated: Tue, 16-Jan-2018 12:56am PST
Light rain, Overcast
Light rain, Overcast
 Wind from S
Wind: S 3 mph , 6 km/h
Temperature: 48°F , 9°C
Dew Point: 46°F , 8°C
Humidity: 94%
Barometer: 30.01 inHg , 1016.3 hPa
Summary: Light rain
Clouds: Overcast
Visibility: 10 miles , 16 km
Cloud details: Few Clouds 2700 ft
Mostly cloudy 5500 ft
Overcast 7000 ft
2018/01/16 08:56 KPWT 160856Z AUTO 18003KT 10SM -RA FEW027 BKN055 OVC070 09/08 A3001 RMK AO2 SLP180 P0002 60012 T00890083 50015
KSEA - Seattle/Metro, Washington, USA
Distance from station: ENE 14mi, 23km
Updated: Tue, 16-Jan-2018 12:53am PST
Light rain, Overcast
Light rain, Overcast
 Wind from SSW
Wind: SSW 5 mph , 7 km/h
Temperature: 50°F , 10°C
Wind Chill: 48°F , 9°C
Dew Point: 46°F , 8°C
Humidity: 88%
Barometer: 30.03 inHg , 1016.9 hPa
Summary: Light rain
Clouds: Overcast
Visibility: 10 miles , 16 km
Cloud details: Few Clouds 4500 ft
Overcast 5500 ft
2018/01/16 08:53 KSEA 160853Z 21004KT 10SM -RA FEW045 OVC055 10/08 A3003 RMK AO2 SLP175 P0004 60006 T01000083 51027
 
KTCM - Tacoma/Mc Chord, Washington, USA
Distance from station: SSE 17mi, 28km
Updated: Tue, 16-Jan-2018 12:58am PST
Light rain, Overcast
Light rain, Overcast
 Wind from E
Wind: E 3 mph , 6 km/h
Temperature: 48°F , 9°C
Dew Point: 48°F , 9°C
Humidity: 100%
Barometer: 30.03 inHg , 1016.9 hPa
Summary: Light rain
Clouds: Overcast
Visibility: 8 miles , 13 km
Cloud details: Overcast 6000 ft
2018/01/16 08:58 KTCM 160858Z AUTO 09003KT 8SM -RA OVC060 09/09 A3003 RMK AO2 RAB00E26DZB26E27RAB27 SLP173 P0003 60003 T00860086 52025 $
KBFI - Seattle/Boeing, Washington, USA
Distance from station: NE 19mi, 30km
Updated: Tue, 16-Jan-2018 12:53am PST
Light rain, Overcast
Light rain, Overcast
 Wind from ESE
Wind: ESE 6 mph , 9 km/h
Temperature: 50°F , 10°C
Wind Chill: 48°F , 9°C
Dew Point: 48°F , 9°C
Humidity: 94%
Barometer: 30.03 inHg , 1016.9 hPa
Summary: Light rain
Clouds: Overcast
Visibility: 10 miles , 16 km
Cloud details: Few Clouds 4800 ft
Overcast 6000 ft
2018/01/16 08:53 KBFI 160853Z 12005KT 10SM -RA FEW048 OVC060 10/09 A3003 RMK AO2 RAB0759 SLP170 P0004 60007 T01000089 51029
KGRF - Fort Lewis/Gray, Washington, USA
Distance from station: S 20mi, 32km
Updated: Tue, 16-Jan-2018 12:58am PST
Light rain, Mostly cloudy
Light rain, Mostly cloudy
 Wind from calm
Wind: Calm
Temperature: 46°F , 8°C
Dew Point: 46°F , 8°C
Humidity: 100%
Barometer: 30.02 inHg , 1016.6 hPa
Summary: Light rain
Clouds: Mostly cloudy
Visibility: 10 miles , 16 km
Cloud details: Partly cloudy 3100 ft
Partly cloudy 4000 ft
Mostly cloudy 6000 ft
2018/01/16 08:58 KGRF 160858Z 00000KT 10SM -RA SCT031 SCT040 BKN060 08/08 A3002 RMK AO2A SLP170 P0001 60001 T00840084 51026 $
 
KRNT - Renton, Washington, USA
Distance from station: ENE 20mi, 32km
Updated: Tue, 16-Jan-2018 12:53am PST
Light rain, Overcast
Light rain, Overcast
 Wind from ENE
Wind: ENE 5 mph , 7 km/h
Temperature: 50°F , 10°C
Wind Chill: 48°F , 9°C
Dew Point: 48°F , 9°C
Humidity: 94%
Barometer: 30.03 inHg , 1016.9 hPa
Summary: Light rain
Clouds: Overcast
Visibility: 9 miles , 14 km
Cloud details: Few Clouds 3000 ft
Mostly cloudy 4100 ft
Overcast 4800 ft
2018/01/16 08:53 KRNT 160853Z AUTO 07004KT 9SM -RA FEW030 BKN041 OVC048 10/09 A3003 RMK AO2 SLP174 P0006 60006 T01000089 51031
KPLU - Puyallup/Thun, Washington, USA
Distance from station: SE 23mi, 36km
Updated: Tue, 16-Jan-2018 1:35am PST
Light drizzle, Overcast
Light drizzle, Overcast
 Wind from calm
Wind: Calm
Temperature: 48°F , 9°C
Dew Point: 48°F , 9°C
Humidity: 100%
Barometer: 30.04 inHg , 1017.3 hPa
Summary: Light Drizzle
Clouds: Overcast
Visibility: 8 miles , 13 km
Cloud details: Partly cloudy 2900 ft
Mostly cloudy 3300 ft
Overcast 5500 ft
2018/01/16 09:35 KPLU 160935Z AUTO 00000KT 8SM -DZ SCT029 BKN033 OVC055 09/09 A3004 RMK AO2
KSHN - Shelton, Washington, USA
Distance from station: WSW 27mi, 43km
Updated: Tue, 16-Jan-2018 1:35am PST
Light rain, Mist, Overcast
Light rain, Mist, Overcast
 Wind from WSW
Wind: WSW 5 mph , 7 km/h
Temperature: 48°F , 9°C
Wind Chill: 46°F , 8°C
Dew Point: 46°F , 8°C
Humidity: 94%
Barometer: 30.01 inHg , 1016.3 hPa
Summary: Light rain, Mist
Clouds: Overcast
Visibility: 5 miles , 8 km
Cloud details: Few Clouds 1500 ft
Mostly cloudy 2300 ft
Overcast 2900 ft
2018/01/16 09:35 KSHN 160935Z AUTO 25004KT 5SM -RA BR FEW015 BKN023 OVC029 09/08 A3001 RMK AO2 RAB16 P0001 T00890083 $
 
KOLM - Olympia, Washington, USA
Distance from station: SSW 30mi, 49km
Updated: Tue, 16-Jan-2018 12:54am PST
Overcast
Overcast
 Wind from calm
Wind: Calm
Temperature: 46°F , 8°C
Dew Point: 46°F , 8°C
Humidity: 100%
Barometer: 30.02 inHg , 1016.6 hPa
Clouds: Overcast
Visibility: 10 miles , 16 km
Cloud details: Few Clouds 4000 ft
Mostly cloudy 8000 ft
Overcast 10000 ft
2018/01/16 08:54 KOLM 160854Z AUTO 00000KT 10SM FEW040 BKN080 OVC100 08/08 A3002 RMK AO2 RAE46 SLP168 P0000 60000 T00780078 51021
KPAE - Everett, Washington, USA
Distance from station: NNE 41mi, 67km
Updated: Tue, 16-Jan-2018 1:11am PST
Light rain, Overcast
Light rain, Overcast
 Wind from ESE
Wind: ESE 13 mph , 20 km/h
Temperature: 48°F , 9°C
Wind Chill: 43°F , 6°C
Dew Point: 48°F , 9°C
Humidity: 100%
Barometer: 30.02 inHg , 1016.6 hPa
Summary: Light rain
Clouds: Overcast
Visibility: 10 miles , 16 km
Cloud details: Few Clouds 1900 ft
Partly cloudy 2500 ft
Overcast 6000 ft
2018/01/16 09:11 KPAE 160911Z AUTO 12011KT 10SM -RA FEW019 SCT025 OVC060 09/09 A3002 RMK AO2 P0000 T00940089
KCLS - Chehalis Central, Washington, USA
Distance from station: SSW 50mi, 80km
Updated: Tue, 16-Jan-2018 1:35am PST
Overcast
Overcast
 Wind from calm
Wind: Calm
Temperature: 48°F , 9°C
Dew Point: 46°F , 8°C
Humidity: 94%
Barometer: 30.04 inHg , 1017.3 hPa
Clouds: Overcast
Visibility: 10 miles , 16 km
Cloud details: Overcast 3500 ft
2018/01/16 09:35 KCLS 160935Z AUTO 00000KT 10SM OVC035 09/08 A3004 RMK AO2